Monday, June 25, 2018, 3:22 PM EDT
Back to Local

KIPT, Williamsport-lycoming County

Location: Montoursville, PA, United States Lat: 41.25
Local Time: 3:22 PM EDT (19:22 GMT) Lon: -76.917
Time Zone: US/Eastern Elev: 528 ft

Show me the last for .
Show Decoded

2018-06-25 14:54 METAR KIPT 251854Z 32011KT 10SM CLR 26/07 A3010 RMK AO2 SLP191 T02560072 =
2018-06-25 13:54 METAR KIPT 251754Z 31011G16KT 10SM SCT035 25/07 A3011 RMK AO2 SLP192 T02500067
                 10256 20189 53001 =
2018-06-25 12:54 METAR KIPT 251654Z 34007G16KT 300V010 10SM FEW060 25/08 A3010 RMK AO2 SLP190
                 T02500083 =
2018-06-25 11:54 METAR KIPT 251554Z 33010G15KT 10SM FEW050 24/10 A3010 RMK AO2 SLP191 T02390100 =
2018-06-25 10:54 METAR KIPT 251454Z 32010KT 10SM SCT046 23/11 A3010 RMK AO2 SLP191 T02280106
                 51018 =
2018-06-25 09:54 METAR KIPT 251354Z 33010KT 10SM SCT038 22/12 A3009 RMK AO2 SLP185 T02220122 =
2018-06-25 08:54 METAR KIPT 251254Z 27006KT 10SM FEW029 BKN042 21/15 A3008 RMK AO2 SLP182
                 T02060150 =
2018-06-25 08:33 METAR KIPT 251233Z 27007KT 10SM SCT027 BKN035 OVC044 19/14 A3007 RMK AO2
                 T01940144 =
2018-06-25 07:54 METAR KIPT 251154Z 28007KT 10SM BKN028 19/14 A3005 RMK AO2 SLP173 70036
                 T01890144 10189 20156 51008 =
2018-06-25 07:49 METAR KIPT 251149Z 27007KT 10SM SCT026 BKN032 19/14 A3005 RMK AO2 =
2018-06-25 07:01 METAR KIPT 251101Z 28008KT 10SM BKN028 OVC034 17/14 A3004 RMK AO2 T01720144 $ =
2018-06-25 06:54 METAR KIPT 251054Z 27007KT 10SM SCT028 BKN034 17/14 A3004 RMK AO2 SLP170
                 T01670139 $ =
2018-06-25 06:33 METAR KIPT 251033Z 27011KT 10SM SCT023 17/14 A3003 RMK AO2 T01670139 $ =
2018-06-25 06:06 METAR KIPT 251006Z AUTO 27009KT 10SM BKN025 BKN031 17/14 A3003 RMK AO2 T01670139
                 $ =
2018-06-25 05:54 METAR KIPT 250954Z AUTO 27007KT 10SM SCT031 17/14 A3002 RMK AO2 SLP165 T01670139
                 $ =
2018-06-25 04:54 METAR KIPT 250854Z AUTO 24004KT 10SM FEW045 16/13 A3000 RMK AO2 SLP156 T01610133
                 51019 $ =
2018-06-25 03:54 METAR KIPT 250754Z AUTO VRB06KT 10SM CLR 17/13 A2998 RMK AO2 SLP148 T01720128 $
                 =
2018-06-25 03:10 METAR KIPT 250710Z AUTO 28005KT 10SM SCT026 17/13 A2997 RMK AO2 T01720133 $ =
2018-06-25 02:54 METAR KIPT 250654Z AUTO 27005KT 10SM BKN026 18/13 A2997 RMK AO2 SLP145 T01780133
                 $ =
2018-06-25 02:03 METAR KIPT 250603Z AUTO 34007KT 10SM OVC028 18/13 A2996 RMK AO2 T01830133 $ =
2018-06-25 01:54 METAR KIPT 250554Z AUTO 34006KT 10SM OVC030 19/13 A2994 RMK AO2 SLP136 60000
                 T01890133 10233 20183 51009 $ =
2018-06-25 00:54 METAR KIPT 250454Z AUTO 34007KT 10SM OVC027 20/14 A2994 RMK AO2 SLP136 T02000144
                 402940178 $ =
2018-06-25 00:03 METAR KIPT 250403Z AUTO 25004KT 10SM BKN025 OVC043 21/16 A2992 RMK AO2 T02060161
                 $ =
2018-06-24 23:54 METAR KIPT 250354Z AUTO 30003KT 10SM SCT027 OVC042 20/16 A2992 RMK AO2 SLP129
                 T02000161 $ =
2018-06-24 22:54 METAR KIPT 250254Z AUTO 32007KT 10SM FEW032 BKN075 BKN095 21/16 A2992 RMK AO2
                 SLP127 60000 T02110161 53027 $ =
2018-06-24 21:54 METAR KIPT 250154Z 27004KT 10SM SCT042 BKN055 OVC100 22/18 A2988 RMK AO2
                 RAB26E37 SLP116 P0000 T02170178 $ =
2018-06-24 20:54 METAR KIPT 250054Z 28005KT 10SM CLR 22/19 A2986 RMK AO2 SLP109 T02170189 $ =
2018-06-24 19:54 METAR KIPT 242354Z 28003KT 10SM FEW050 OVC120 23/18 A2984 RMK AO2 SLP099 60036
                 T02330183 10294 20200 53002 $ =
2018-06-24 18:54 METAR KIPT 242254Z 30008KT 10SM FEW020 24/18 A2983 RMK AO2 SLP096 T02390183 $ =
2018-06-24 17:54 METAR KIPT 242154Z 26006KT 10SM FEW040 23/19 A2982 RMK AO2 LTG DSNT E-S RAE41
                 TSE29 SLP093 P0026 T02280194 $ =
2018-06-24 17:35 METAR KIPT 242135Z VRB04KT 10SM -RA FEW044 SCT070 BKN100 21/19 A2983 RMK AO2 LTG
                 DSNT E-S TSE29 P0026 T02060189 $ =
2018-06-24 17:14 METAR KIPT 242114Z 27008KT 3SM TSRA BR SCT040 BKN047 OVC100 20/18 A2984 RMK AO2
                 LTG DSNT ALQDS P0026 T02000178 $ =
2018-06-24 17:00 METAR KIPT 242100Z 28009KT 1 3/4SM +TSRA SCT035 BKN041 OVC080 22/19 A2983 RMK
                 AO2 LTG DSNT NE AND SW AND W P0003 T02170189 $ =
2018-06-24 16:54 METAR KIPT 242054Z 29010KT 3SM -TSRA BKN045 BKN055 OVC110 22/19 A2983 RMK AO2 PK
                 WND 30029/2038 LTG DSNT ALQDS RAB35 TSB51 PRESRR SLP098 P0010 60010 T02220189
                 53010 $ =
2018-06-24 16:43 METAR KIPT 242043Z 29011G29KT 2SM VCTS +RA FEW042 BKN055 OVC120 22/18 A2981 RMK
                 AO2 PK WND 30029/2038 LTG DSNT ALQDS RAB35 P0004 T02220183 $ =
2018-06-24 15:54 METAR KIPT 241954Z 25012G17KT 10SM CLR 29/17 A2977 RMK AO2 LTG DSNT N AND NW
                 SLP077 T02940167 $ =

Support USWX by starting your Amazon purchase here.